sensor_id;sensor_type;location;lat;lon;timestamp;P1;durP1;ratioP1;P2;durP2;ratioP2
51529;SDS011;37613;51.788;21.582;2022-12-07T00:06:45;36.20;;;20.80;;
51529;SDS011;37613;51.788;21.582;2022-12-07T00:10:52;27.80;;;17.70;;
51529;SDS011;37613;51.788;21.582;2022-12-07T00:14:54;27.50;;;16.70;;
51529;SDS011;37613;51.788;21.582;2022-12-07T00:18:56;28.40;;;16.20;;
51529;SDS011;37613;51.788;21.582;2022-12-07T00:28:04;25.10;;;15.90;;
51529;SDS011;37613;51.788;21.582;2022-12-07T00:32:06;24.50;;;15.70;;
51529;SDS011;37613;51.788;21.582;2022-12-07T00:36:09;22.70;;;14.10;;
51529;SDS011;37613;51.788;21.582;2022-12-07T00:40:13;31.20;;;18.90;;
51529;SDS011;37613;51.788;21.582;2022-12-07T00:44:15;28.70;;;17.40;;
51529;SDS011;37613;51.788;21.582;2022-12-07T00:48:17;29.10;;;18.40;;
51529;SDS011;37613;51.788;21.582;2022-12-07T00:52:19;27.40;;;16.30;;
51529;SDS011;37613;51.788;21.582;2022-12-07T00:56:25;24.40;;;15.40;;
51529;SDS011;37613;51.788;21.582;2022-12-07T01:00:29;28.80;;;16.60;;
51529;SDS011;37613;51.788;21.582;2022-12-07T01:04:33;25.80;;;15.60;;
51529;SDS011;37613;51.788;21.582;2022-12-07T01:08:35;37.00;;;21.10;;
51529;SDS011;37613;51.788;21.582;2022-12-07T01:12:37;23.20;;;15.60;;
51529;SDS011;37613;51.788;21.582;2022-12-07T01:16:40;32.40;;;19.00;;
51529;SDS011;37613;51.788;21.582;2022-12-07T01:20:42;28.90;;;16.10;;
51529;SDS011;37613;51.788;21.582;2022-12-07T01:24:44;33.40;;;19.70;;
51529;SDS011;37613;51.788;21.582;2022-12-07T01:28:48;28.50;;;17.20;;
51529;SDS011;37613;51.788;21.582;2022-12-07T01:32:50;29.40;;;16.40;;
51529;SDS011;37613;51.788;21.582;2022-12-07T01:36:52;27.80;;;16.20;;
51529;SDS011;37613;51.788;21.582;2022-12-07T01:40:55;25.20;;;14.00;;
51529;SDS011;37613;51.788;21.582;2022-12-07T01:53:42;20.00;;;12.80;;
51529;SDS011;37613;51.788;21.582;2022-12-07T01:57:47;19.50;;;11.90;;
51529;SDS011;37613;51.788;21.582;2022-12-07T02:01:53;18.10;;;10.80;;
51529;SDS011;37613;51.788;21.582;2022-12-07T02:05:57;21.60;;;12.20;;
51529;SDS011;37613;51.788;21.582;2022-12-07T02:10:18;20.70;;;11.80;;
51529;SDS011;37613;51.788;21.582;2022-12-07T02:14:20;15.90;;;9.50;;
51529;SDS011;37613;51.788;21.582;2022-12-07T02:32:10;12.90;;;7.80;;
51529;SDS011;37613;51.788;21.582;2022-12-07T02:36:20;11.20;;;6.30;;
51529;SDS011;37613;51.788;21.582;2022-12-07T02:40:31;12.90;;;7.00;;
51529;SDS011;37613;51.788;21.582;2022-12-07T02:44:35;11.50;;;7.20;;
51529;SDS011;37613;51.788;21.582;2022-12-07T02:48:38;7.90;;;5.90;;
51529;SDS011;37613;51.788;21.582;2022-12-07T02:52:43;9.10;;;6.20;;
51529;SDS011;37613;51.788;21.582;2022-12-07T02:56:46;12.30;;;7.80;;
51529;SDS011;37613;51.788;21.582;2022-12-07T03:00:55;10.00;;;6.70;;
51529;SDS011;37613;51.788;21.582;2022-12-07T03:14:23;9.50;;;6.90;;
51529;SDS011;37613;51.788;21.582;2022-12-07T03:18:38;12.40;;;8.30;;
51529;SDS011;37613;51.788;21.582;2022-12-07T03:22:46;11.70;;;7.50;;
51529;SDS011;37613;51.788;21.582;2022-12-07T03:26:53;11.30;;;6.90;;
51529;SDS011;37613;51.788;21.582;2022-12-07T03:31:12;12.80;;;8.10;;
51529;SDS011;37613;51.788;21.582;2022-12-07T03:41:00;13.80;;;9.00;;
51529;SDS011;37613;51.788;21.582;2022-12-07T03:45:03;15.70;;;9.20;;
51529;SDS011;37613;51.788;21.582;2022-12-07T03:49:10;12.10;;;8.00;;
51529;SDS011;37613;51.788;21.582;2022-12-07T03:53:22;18.80;;;14.90;;
51529;SDS011;37613;51.788;21.582;2022-12-07T03:57:33;19.10;;;10.80;;
51529;SDS011;37613;51.788;21.582;2022-12-07T04:01:36;19.90;;;11.40;;
51529;SDS011;37613;51.788;21.582;2022-12-07T04:05:38;60.10;;;27.80;;
51529;SDS011;37613;51.788;21.582;2022-12-07T04:09:42;55.60;;;38.60;;
51529;SDS011;37613;51.788;21.582;2022-12-07T04:13:44;34.30;;;26.90;;
51529;SDS011;37613;51.788;21.582;2022-12-07T04:18:04;25.80;;;17.50;;
51529;SDS011;37613;51.788;21.582;2022-12-07T04:22:07;30.60;;;16.10;;
51529;SDS011;37613;51.788;21.582;2022-12-07T04:26:09;31.60;;;17.20;;
51529;SDS011;37613;51.788;21.582;2022-12-07T04:30:11;27.60;;;16.60;;
51529;SDS011;37613;51.788;21.582;2022-12-07T04:34:13;83.50;;;46.90;;
51529;SDS011;37613;51.788;21.582;2022-12-07T04:38:17;46.80;;;23.10;;
51529;SDS011;37613;51.788;21.582;2022-12-07T04:42:19;40.20;;;21.10;;
51529;SDS011;37613;51.788;21.582;2022-12-07T04:46:21;39.60;;;22.40;;
51529;SDS011;37613;51.788;21.582;2022-12-07T04:50:24;56.30;;;25.60;;
51529;SDS011;37613;51.788;21.582;2022-12-07T04:54:26;29.30;;;15.60;;
51529;SDS011;37613;51.788;21.582;2022-12-07T04:58:28;43.10;;;21.40;;
51529;SDS011;37613;51.788;21.582;2022-12-07T05:02:30;31.70;;;17.90;;
51529;SDS011;37613;51.788;21.582;2022-12-07T05:06:32;46.40;;;22.60;;
51529;SDS011;37613;51.788;21.582;2022-12-07T05:10:35;60.00;;;27.40;;
51529;SDS011;37613;51.788;21.582;2022-12-07T05:14:37;45.20;;;24.00;;
51529;SDS011;37613;51.788;21.582;2022-12-07T05:18:39;39.30;;;20.00;;
51529;SDS011;37613;51.788;21.582;2022-12-07T05:22:41;40.90;;;21.60;;
51529;SDS011;37613;51.788;21.582;2022-12-07T05:26:43;45.60;;;25.40;;
51529;SDS011;37613;51.788;21.582;2022-12-07T05:30:46;40.70;;;22.50;;
51529;SDS011;37613;51.788;21.582;2022-12-07T05:34:48;34.30;;;20.00;;
51529;SDS011;37613;51.788;21.582;2022-12-07T05:38:50;34.20;;;19.70;;
51529;SDS011;37613;51.788;21.582;2022-12-07T05:42:55;23.40;;;15.80;;
51529;SDS011;37613;51.788;21.582;2022-12-07T05:46:57;28.40;;;16.40;;
51529;SDS011;37613;51.788;21.582;2022-12-07T05:50:59;30.40;;;18.50;;
51529;SDS011;37613;51.788;21.582;2022-12-07T05:55:01;27.70;;;18.10;;
51529;SDS011;37613;51.788;21.582;2022-12-07T05:59:03;34.60;;;19.60;;
51529;SDS011;37613;51.788;21.582;2022-12-07T06:03:23;26.10;;;16.80;;
51529;SDS011;37613;51.788;21.582;2022-12-07T06:07:26;36.30;;;19.60;;
51529;SDS011;37613;51.788;21.582;2022-12-07T06:11:28;21.10;;;12.90;;
51529;SDS011;37613;51.788;21.582;2022-12-07T06:15:48;24.70;;;15.40;;
51529;SDS011;37613;51.788;21.582;2022-12-07T06:19:50;37.10;;;20.80;;
51529;SDS011;37613;51.788;21.582;2022-12-07T06:23:53;32.20;;;18.90;;
51529;SDS011;37613;51.788;21.582;2022-12-07T06:27:56;22.60;;;14.50;;
51529;SDS011;37613;51.788;21.582;2022-12-07T06:31:58;23.10;;;14.70;;
51529;SDS011;37613;51.788;21.582;2022-12-07T06:36:00;22.20;;;13.30;;
51529;SDS011;37613;51.788;21.582;2022-12-07T06:40:02;23.20;;;15.30;;
51529;SDS011;37613;51.788;21.582;2022-12-07T06:44:06;26.20;;;14.70;;
51529;SDS011;37613;51.788;21.582;2022-12-07T06:48:11;22.00;;;13.90;;
51529;SDS011;37613;51.788;21.582;2022-12-07T06:52:16;15.00;;;10.10;;
51529;SDS011;37613;51.788;21.582;2022-12-07T06:56:19;26.30;;;12.80;;
51529;SDS011;37613;51.788;21.582;2022-12-07T07:00:21;16.80;;;10.80;;
51529;SDS011;37613;51.788;21.582;2022-12-07T07:04:23;20.80;;;13.30;;
51529;SDS011;37613;51.788;21.582;2022-12-07T07:08:26;23.50;;;14.30;;
51529;SDS011;37613;51.788;21.582;2022-12-07T07:12:28;22.50;;;14.30;;
51529;SDS011;37613;51.788;21.582;2022-12-07T07:16:30;23.60;;;14.20;;
51529;SDS011;37613;51.788;21.582;2022-12-07T07:20:32;18.20;;;11.50;;
51529;SDS011;37613;51.788;21.582;2022-12-07T07:24:34;18.90;;;12.40;;
51529;SDS011;37613;51.788;21.582;2022-12-07T07:28:36;19.50;;;11.60;;
51529;SDS011;37613;51.788;21.582;2022-12-07T07:32:39;28.60;;;18.80;;
51529;SDS011;37613;51.788;21.582;2022-12-07T07:36:41;30.50;;;24.10;;
51529;SDS011;37613;51.788;21.582;2022-12-07T07:40:43;20.30;;;14.90;;
51529;SDS011;37613;51.788;21.582;2022-12-07T07:44:46;32.60;;;18.00;;
51529;SDS011;37613;51.788;21.582;2022-12-07T07:48:48;29.70;;;18.60;;
51529;SDS011;37613;51.788;21.582;2022-12-07T07:52:50;28.80;;;20.80;;
51529;SDS011;37613;51.788;21.582;2022-12-07T07:56:53;25.70;;;15.20;;
51529;SDS011;37613;51.788;21.582;2022-12-07T08:00:55;22.30;;;15.20;;
51529;SDS011;37613;51.788;21.582;2022-12-07T08:04:57;21.40;;;15.70;;
51529;SDS011;37613;51.788;21.582;2022-12-07T08:08:59;30.50;;;20.90;;
51529;SDS011;37613;51.788;21.582;2022-12-07T08:13:01;24.00;;;17.90;;
51529;SDS011;37613;51.788;21.582;2022-12-07T08:17:12;21.60;;;14.70;;
51529;SDS011;37613;51.788;21.582;2022-12-07T08:21:14;29.20;;;20.60;;
51529;SDS011;37613;51.788;21.582;2022-12-07T08:25:17;22.30;;;15.80;;
51529;SDS011;37613;51.788;21.582;2022-12-07T08:29:19;18.90;;;12.70;;
51529;SDS011;37613;51.788;21.582;2022-12-07T08:33:22;19.40;;;13.50;;
51529;SDS011;37613;51.788;21.582;2022-12-07T08:37:24;19.10;;;13.70;;
51529;SDS011;37613;51.788;21.582;2022-12-07T08:41:26;24.40;;;18.40;;
51529;SDS011;37613;51.788;21.582;2022-12-07T08:45:28;18.70;;;12.00;;
51529;SDS011;37613;51.788;21.582;2022-12-07T08:49:40;14.10;;;10.30;;
51529;SDS011;37613;51.788;21.582;2022-12-07T08:53:45;16.90;;;11.90;;
51529;SDS011;37613;51.788;21.582;2022-12-07T08:57:47;24.30;;;13.90;;
51529;SDS011;37613;51.788;21.582;2022-12-07T09:01:49;36.10;;;19.10;;
51529;SDS011;37613;51.788;21.582;2022-12-07T09:05:52;23.30;;;14.50;;
51529;SDS011;37613;51.788;21.582;2022-12-07T09:13:57;32.70;;;16.30;;
51529;SDS011;37613;51.788;21.582;2022-12-07T09:17:59;33.00;;;18.20;;
51529;SDS011;37613;51.788;21.582;2022-12-07T09:22:02;33.20;;;18.60;;
51529;SDS011;37613;51.788;21.582;2022-12-07T09:26:06;30.10;;;17.50;;
51529;SDS011;37613;51.788;21.582;2022-12-07T09:30:08;33.00;;;17.70;;
51529;SDS011;37613;51.788;21.582;2022-12-07T09:34:10;24.00;;;14.10;;
51529;SDS011;37613;51.788;21.582;2022-12-07T09:38:13;22.80;;;12.60;;
51529;SDS011;37613;51.788;21.582;2022-12-07T09:42:49;26.70;;;14.30;;
51529;SDS011;37613;51.788;21.582;2022-12-07T09:46:46;21.30;;;14.20;;
51529;SDS011;37613;51.788;21.582;2022-12-07T09:50:48;24.90;;;15.30;;
51529;SDS011;37613;51.788;21.582;2022-12-07T09:54:52;19.50;;;13.20;;
51529;SDS011;37613;51.788;21.582;2022-12-07T09:58:58;48.50;;;28.10;;
51529;SDS011;37613;51.788;21.582;2022-12-07T10:03:02;30.10;;;16.30;;
51529;SDS011;37613;51.788;21.582;2022-12-07T10:07:04;25.30;;;16.20;;
51529;SDS011;37613;51.788;21.582;2022-12-07T10:11:07;30.10;;;19.40;;
51529;SDS011;37613;51.788;21.582;2022-12-07T10:15:12;36.40;;;21.10;;
51529;SDS011;37613;51.788;21.582;2022-12-07T10:23:28;43.30;;;29.40;;
51529;SDS011;37613;51.788;21.582;2022-12-07T10:27:31;30.10;;;15.90;;
51529;SDS011;37613;51.788;21.582;2022-12-07T10:31:34;28.30;;;16.50;;
51529;SDS011;37613;51.788;21.582;2022-12-07T10:35:42;28.10;;;16.80;;
51529;SDS011;37613;51.788;21.582;2022-12-07T10:43:55;30.40;;;17.20;;
51529;SDS011;37613;51.788;21.582;2022-12-07T10:52:32;31.80;;;19.30;;
51529;SDS011;37613;51.788;21.582;2022-12-07T10:56:50;29.80;;;17.10;;
51529;SDS011;37613;51.788;21.582;2022-12-07T11:01:04;25.10;;;15.60;;
51529;SDS011;37613;51.788;21.582;2022-12-07T11:18:52;31.10;;;20.40;;
51529;SDS011;37613;51.788;21.582;2022-12-07T11:27:46;28.60;;;18.00;;
51529;SDS011;37613;51.788;21.582;2022-12-07T11:40:42;21.20;;;14.40;;
51529;SDS011;37613;51.788;21.582;2022-12-07T11:53:47;18.00;;;12.30;;
51529;SDS011;37613;51.788;21.582;2022-12-07T11:58:00;17.90;;;12.40;;
51529;SDS011;37613;51.788;21.582;2022-12-07T12:02:16;22.50;;;15.30;;
51529;SDS011;37613;51.788;21.582;2022-12-07T12:06:25;21.00;;;13.20;;
51529;SDS011;37613;51.788;21.582;2022-12-07T12:10:32;23.10;;;14.90;;
51529;SDS011;37613;51.788;21.582;2022-12-07T12:23:25;33.80;;;23.80;;
51529;SDS011;37613;51.788;21.582;2022-12-07T12:27:34;19.10;;;12.50;;
51529;SDS011;37613;51.788;21.582;2022-12-07T12:36:55;14.00;;;10.20;;
51529;SDS011;37613;51.788;21.582;2022-12-07T12:40:57;12.90;;;9.40;;
51529;SDS011;37613;51.788;21.582;2022-12-07T12:45:04;18.60;;;12.00;;
51529;SDS011;37613;51.788;21.582;2022-12-07T12:57:27;21.70;;;12.70;;
51529;SDS011;37613;51.788;21.582;2022-12-07T13:01:42;14.90;;;10.10;;
51529;SDS011;37613;51.788;21.582;2022-12-07T13:05:45;17.40;;;11.90;;
51529;SDS011;37613;51.788;21.582;2022-12-07T13:09:47;16.40;;;11.90;;
51529;SDS011;37613;51.788;21.582;2022-12-07T13:13:49;16.70;;;10.00;;
51529;SDS011;37613;51.788;21.582;2022-12-07T13:17:55;26.10;;;16.10;;
51529;SDS011;37613;51.788;21.582;2022-12-07T13:21:58;18.10;;;12.80;;
51529;SDS011;37613;51.788;21.582;2022-12-07T13:30:20;34.00;;;21.20;;
51529;SDS011;37613;51.788;21.582;2022-12-07T13:34:30;20.20;;;13.60;;
51529;SDS011;37613;51.788;21.582;2022-12-07T13:38:37;33.70;;;20.60;;
51529;SDS011;37613;51.788;21.582;2022-12-07T13:42:40;34.40;;;18.40;;
51529;SDS011;37613;51.788;21.582;2022-12-07T13:46:50;42.30;;;22.90;;
51529;SDS011;37613;51.788;21.582;2022-12-07T13:50:58;35.30;;;21.00;;
51529;SDS011;37613;51.788;21.582;2022-12-07T13:59:17;51.90;;;33.40;;
51529;SDS011;37613;51.788;21.582;2022-12-07T14:03:28;28.80;;;17.70;;
51529;SDS011;37613;51.788;21.582;2022-12-07T14:07:33;27.30;;;15.80;;
51529;SDS011;37613;51.788;21.582;2022-12-07T14:11:35;37.00;;;19.90;;
51529;SDS011;37613;51.788;21.582;2022-12-07T14:15:39;64.70;;;31.90;;
51529;SDS011;37613;51.788;21.582;2022-12-07T14:24:10;75.30;;;33.30;;
51529;SDS011;37613;51.788;21.582;2022-12-07T14:28:27;41.40;;;23.40;;
51529;SDS011;37613;51.788;21.582;2022-12-07T14:32:31;41.30;;;24.10;;
51529;SDS011;37613;51.788;21.582;2022-12-07T14:36:36;35.70;;;21.70;;
51529;SDS011;37613;51.788;21.582;2022-12-07T14:40:38;38.60;;;21.20;;
51529;SDS011;37613;51.788;21.582;2022-12-07T14:44:41;45.30;;;24.00;;
51529;SDS011;37613;51.788;21.582;2022-12-07T14:48:43;38.80;;;23.60;;
51529;SDS011;37613;51.788;21.582;2022-12-07T14:52:50;48.90;;;25.10;;
51529;SDS011;37613;51.788;21.582;2022-12-07T14:57:00;29.80;;;20.80;;
51529;SDS011;37613;51.788;21.582;2022-12-07T15:01:03;42.60;;;27.40;;
51529;SDS011;37613;51.788;21.582;2022-12-07T15:05:05;32.20;;;19.50;;
51529;SDS011;37613;51.788;21.582;2022-12-07T15:09:08;26.50;;;17.20;;
51529;SDS011;37613;51.788;21.582;2022-12-07T15:13:10;44.60;;;26.80;;
51529;SDS011;37613;51.788;21.582;2022-12-07T15:17:31;44.10;;;25.10;;
51529;SDS011;37613;51.788;21.582;2022-12-07T15:21:33;62.60;;;31.30;;
51529;SDS011;37613;51.788;21.582;2022-12-07T15:25:35;63.10;;;30.70;;
51529;SDS011;37613;51.788;21.582;2022-12-07T15:29:37;55.60;;;29.80;;
51529;SDS011;37613;51.788;21.582;2022-12-07T15:33:39;43.30;;;24.50;;
51529;SDS011;37613;51.788;21.582;2022-12-07T15:37:42;42.50;;;25.90;;
51529;SDS011;37613;51.788;21.582;2022-12-07T15:41:44;38.40;;;22.20;;
51529;SDS011;37613;51.788;21.582;2022-12-07T15:45:49;33.80;;;21.20;;
51529;SDS011;37613;51.788;21.582;2022-12-07T15:49:51;32.00;;;21.90;;
51529;SDS011;37613;51.788;21.582;2022-12-07T15:53:54;43.50;;;25.90;;
51529;SDS011;37613;51.788;21.582;2022-12-07T15:57:56;34.40;;;21.00;;
51529;SDS011;37613;51.788;21.582;2022-12-07T16:01:58;35.80;;;21.60;;
51529;SDS011;37613;51.788;21.582;2022-12-07T16:06:00;34.40;;;21.20;;
51529;SDS011;37613;51.788;21.582;2022-12-07T16:10:02;40.80;;;24.50;;
51529;SDS011;37613;51.788;21.582;2022-12-07T16:14:05;36.00;;;20.80;;
51529;SDS011;37613;51.788;21.582;2022-12-07T16:18:07;36.60;;;21.20;;
51529;SDS011;37613;51.788;21.582;2022-12-07T16:22:10;41.90;;;23.70;;
51529;SDS011;37613;51.788;21.582;2022-12-07T16:26:14;30.70;;;18.90;;
51529;SDS011;37613;51.788;21.582;2022-12-07T16:30:18;35.90;;;21.30;;
51529;SDS011;37613;51.788;21.582;2022-12-07T16:34:21;39.70;;;23.20;;
51529;SDS011;37613;51.788;21.582;2022-12-07T16:38:23;32.80;;;20.00;;
51529;SDS011;37613;51.788;21.582;2022-12-07T16:42:25;37.20;;;21.20;;
51529;SDS011;37613;51.788;21.582;2022-12-07T16:46:28;34.30;;;20.90;;
51529;SDS011;37613;51.788;21.582;2022-12-07T16:50:30;46.50;;;26.40;;
51529;SDS011;37613;51.788;21.582;2022-12-07T16:54:32;51.60;;;29.80;;
51529;SDS011;37613;51.788;21.582;2022-12-07T16:58:35;49.10;;;27.20;;
51529;SDS011;37613;51.788;21.582;2022-12-07T17:02:37;45.60;;;26.30;;
51529;SDS011;37613;51.788;21.582;2022-12-07T17:06:40;60.50;;;33.70;;
51529;SDS011;37613;51.788;21.582;2022-12-07T17:10:43;66.30;;;35.00;;
51529;SDS011;37613;51.788;21.582;2022-12-07T17:14:46;96.70;;;38.40;;
51529;SDS011;37613;51.788;21.582;2022-12-07T17:19:08;96.50;;;38.80;;
51529;SDS011;37613;51.788;21.582;2022-12-07T17:23:15;81.90;;;37.30;;
51529;SDS011;37613;51.788;21.582;2022-12-07T17:27:17;83.80;;;36.50;;
51529;SDS011;37613;51.788;21.582;2022-12-07T17:31:21;70.80;;;35.00;;
51529;SDS011;37613;51.788;21.582;2022-12-07T17:35:25;73.50;;;35.00;;
51529;SDS011;37613;51.788;21.582;2022-12-07T17:39:27;80.70;;;38.30;;
51529;SDS011;37613;51.788;21.582;2022-12-07T17:43:30;90.90;;;46.60;;
51529;SDS011;37613;51.788;21.582;2022-12-07T17:51:38;31.20;;;17.80;;
51529;SDS011;37613;51.788;21.582;2022-12-07T17:55:59;31.30;;;16.70;;
51529;SDS011;37613;51.788;21.582;2022-12-07T18:00:03;31.70;;;19.10;;
51529;SDS011;37613;51.788;21.582;2022-12-07T18:04:07;28.80;;;16.70;;
51529;SDS011;37613;51.788;21.582;2022-12-07T18:08:10;28.90;;;18.60;;
51529;SDS011;37613;51.788;21.582;2022-12-07T18:12:14;32.00;;;17.60;;
51529;SDS011;37613;51.788;21.582;2022-12-07T18:16:18;28.40;;;16.70;;
51529;SDS011;37613;51.788;21.582;2022-12-07T18:20:23;25.50;;;16.20;;
51529;SDS011;37613;51.788;21.582;2022-12-07T18:24:28;25.80;;;14.20;;
51529;SDS011;37613;51.788;21.582;2022-12-07T18:28:30;25.00;;;14.40;;
51529;SDS011;37613;51.788;21.582;2022-12-07T18:32:33;25.50;;;15.90;;
51529;SDS011;37613;51.788;21.582;2022-12-07T18:36:38;24.50;;;16.30;;
51529;SDS011;37613;51.788;21.582;2022-12-07T18:40:47;28.50;;;15.70;;
51529;SDS011;37613;51.788;21.582;2022-12-07T18:44:49;26.60;;;15.10;;
51529;SDS011;37613;51.788;21.582;2022-12-07T18:48:53;35.40;;;19.70;;
51529;SDS011;37613;51.788;21.582;2022-12-07T18:52:59;33.70;;;17.90;;
51529;SDS011;37613;51.788;21.582;2022-12-07T18:57:03;29.80;;;16.80;;
51529;SDS011;37613;51.788;21.582;2022-12-07T19:01:06;29.30;;;16.20;;
51529;SDS011;37613;51.788;21.582;2022-12-07T19:05:09;28.60;;;16.80;;
51529;SDS011;37613;51.788;21.582;2022-12-07T19:09:11;27.00;;;17.00;;
51529;SDS011;37613;51.788;21.582;2022-12-07T19:13:14;30.30;;;17.90;;
51529;SDS011;37613;51.788;21.582;2022-12-07T19:17:18;27.60;;;14.70;;
51529;SDS011;37613;51.788;21.582;2022-12-07T19:21:22;51.80;;;25.90;;
51529;SDS011;37613;51.788;21.582;2022-12-07T19:25:25;33.90;;;21.80;;
51529;SDS011;37613;51.788;21.582;2022-12-07T19:29:28;52.80;;;33.20;;
51529;SDS011;37613;51.788;21.582;2022-12-07T19:33:32;47.00;;;31.90;;
51529;SDS011;37613;51.788;21.582;2022-12-07T19:37:36;36.60;;;25.50;;
51529;SDS011;37613;51.788;21.582;2022-12-07T19:41:41;27.90;;;17.40;;
51529;SDS011;37613;51.788;21.582;2022-12-07T19:45:47;34.40;;;19.30;;
51529;SDS011;37613;51.788;21.582;2022-12-07T19:49:50;30.60;;;18.00;;
51529;SDS011;37613;51.788;21.582;2022-12-07T19:53:54;24.40;;;15.00;;
51529;SDS011;37613;51.788;21.582;2022-12-07T19:57:58;25.10;;;14.60;;
51529;SDS011;37613;51.788;21.582;2022-12-07T20:02:01;36.00;;;20.70;;
51529;SDS011;37613;51.788;21.582;2022-12-07T20:06:09;44.20;;;22.80;;
51529;SDS011;37613;51.788;21.582;2022-12-07T20:10:19;50.90;;;27.20;;
51529;SDS011;37613;51.788;21.582;2022-12-07T20:14:23;38.20;;;20.70;;
51529;SDS011;37613;51.788;21.582;2022-12-07T20:18:27;27.60;;;16.30;;
51529;SDS011;37613;51.788;21.582;2022-12-07T20:22:30;34.50;;;26.60;;
51529;SDS011;37613;51.788;21.582;2022-12-07T20:26:34;53.30;;;33.50;;
51529;SDS011;37613;51.788;21.582;2022-12-07T20:30:44;59.50;;;37.40;;
51529;SDS011;37613;51.788;21.582;2022-12-07T20:34:48;44.30;;;25.60;;
51529;SDS011;37613;51.788;21.582;2022-12-07T20:38:54;26.30;;;17.60;;
51529;SDS011;37613;51.788;21.582;2022-12-07T20:43:02;32.40;;;19.30;;
51529;SDS011;37613;51.788;21.582;2022-12-07T20:47:05;24.20;;;15.80;;
51529;SDS011;37613;51.788;21.582;2022-12-07T20:51:08;21.70;;;13.50;;
51529;SDS011;37613;51.788;21.582;2022-12-07T20:55:13;19.40;;;11.40;;
51529;SDS011;37613;51.788;21.582;2022-12-07T20:59:15;33.40;;;16.60;;
51529;SDS011;37613;51.788;21.582;2022-12-07T21:03:18;61.70;;;26.20;;
51529;SDS011;37613;51.788;21.582;2022-12-07T21:07:21;54.10;;;22.10;;
51529;SDS011;37613;51.788;21.582;2022-12-07T21:11:24;81.70;;;28.10;;
51529;SDS011;37613;51.788;21.582;2022-12-07T21:15:27;131.10;;;43.80;;
51529;SDS011;37613;51.788;21.582;2022-12-07T21:19:30;99.00;;;34.70;;
51529;SDS011;37613;51.788;21.582;2022-12-07T21:23:32;83.50;;;32.20;;
51529;SDS011;37613;51.788;21.582;2022-12-07T21:27:34;58.90;;;24.90;;
51529;SDS011;37613;51.788;21.582;2022-12-07T21:31:36;31.50;;;15.80;;
51529;SDS011;37613;51.788;21.582;2022-12-07T21:35:39;52.40;;;20.60;;
51529;SDS011;37613;51.788;21.582;2022-12-07T21:39:41;58.40;;;24.00;;
51529;SDS011;37613;51.788;21.582;2022-12-07T21:43:44;69.10;;;27.40;;
51529;SDS011;37613;51.788;21.582;2022-12-07T21:47:47;74.10;;;26.10;;
51529;SDS011;37613;51.788;21.582;2022-12-07T21:51:49;68.70;;;21.70;;
51529;SDS011;37613;51.788;21.582;2022-12-07T21:55:51;63.40;;;20.70;;
51529;SDS011;37613;51.788;21.582;2022-12-07T21:59:53;79.60;;;28.20;;
51529;SDS011;37613;51.788;21.582;2022-12-07T22:03:55;62.00;;;24.00;;
51529;SDS011;37613;51.788;21.582;2022-12-07T22:07:57;53.50;;;21.40;;
51529;SDS011;37613;51.788;21.582;2022-12-07T22:11:59;46.60;;;21.40;;
51529;SDS011;37613;51.788;21.582;2022-12-07T22:16:01;47.70;;;18.90;;
51529;SDS011;37613;51.788;21.582;2022-12-07T22:20:03;38.70;;;14.90;;
51529;SDS011;37613;51.788;21.582;2022-12-07T22:24:06;42.40;;;18.40;;
51529;SDS011;37613;51.788;21.582;2022-12-07T22:28:08;31.70;;;14.70;;
51529;SDS011;37613;51.788;21.582;2022-12-07T22:32:10;33.20;;;16.80;;
51529;SDS011;37613;51.788;21.582;2022-12-07T22:36:13;21.80;;;12.80;;
51529;SDS011;37613;51.788;21.582;2022-12-07T22:40:15;19.60;;;11.70;;
51529;SDS011;37613;51.788;21.582;2022-12-07T22:44:17;31.90;;;14.10;;
51529;SDS011;37613;51.788;21.582;2022-12-07T22:48:19;24.10;;;12.50;;
51529;SDS011;37613;51.788;21.582;2022-12-07T22:52:22;25.20;;;12.40;;
51529;SDS011;37613;51.788;21.582;2022-12-07T22:56:24;19.00;;;10.50;;
51529;SDS011;37613;51.788;21.582;2022-12-07T23:00:27;27.90;;;13.20;;
51529;SDS011;37613;51.788;21.582;2022-12-07T23:04:29;19.80;;;9.00;;
51529;SDS011;37613;51.788;21.582;2022-12-07T23:08:31;17.60;;;10.50;;
51529;SDS011;37613;51.788;21.582;2022-12-07T23:12:33;16.50;;;8.80;;
51529;SDS011;37613;51.788;21.582;2022-12-07T23:16:55;18.20;;;10.40;;
51529;SDS011;37613;51.788;21.582;2022-12-07T23:20:57;18.70;;;11.30;;
51529;SDS011;37613;51.788;21.582;2022-12-07T23:24:59;20.10;;;9.60;;
51529;SDS011;37613;51.788;21.582;2022-12-07T23:29:01;24.30;;;12.60;;
51529;SDS011;37613;51.788;21.582;2022-12-07T23:33:03;19.20;;;11.40;;
51529;SDS011;37613;51.788;21.582;2022-12-07T23:37:05;25.10;;;12.30;;
51529;SDS011;37613;51.788;21.582;2022-12-07T23:41:09;36.00;;;17.60;;
51529;SDS011;37613;51.788;21.582;2022-12-07T23:45:13;30.90;;;14.30;;
51529;SDS011;37613;51.788;21.582;2022-12-07T23:49:15;20.00;;;11.20;;
51529;SDS011;37613;51.788;21.582;2022-12-07T23:53:19;22.70;;;12.80;;
51529;SDS011;37613;51.788;21.582;2022-12-07T23:57:21;20.90;;;10.60;;
